Barranca, New Mexico
Current Conditions -  °F | °C
As of 7:15 AM on Sunday 25 Jan 2015 (Local Time) from KLAM Reporting Station
Clear Clear  
Wind Chill: 31°   Ceiling: Unl
Heat Index: 36°   Visibility: 10mi
Dew Point: 16°   Wind: 6mph
Humidity: 45%   Direction: 360°N
Pressure: 30.28"   Gusts: 9mph
Location:  36.1557°N, 106.238°W
Report Text: KLAM 251415Z AUTO 36005G08KT 10SM CLR 02/M09 A3028 RMK AO2 T00211087
Loading
Personal Weather Stations






























Interactive Weather Map New forecast layout! Learn more

10-Day Weather Forecast

Advertisements
Track Severe Weather on mobile